sensor_id;sensor_type;location;lat;lon;timestamp;pressure;altitude;pressure_sealevel;temperature;humidity
12799;BME280;19250;42.646;26.980;2023-03-04T00:00:27;99115.13;;;9.76;100.00
12799;BME280;19250;42.646;26.980;2023-03-04T00:02:55;99123.47;;;9.91;100.00
12799;BME280;19250;42.646;26.980;2023-03-04T00:05:23;99127.91;;;10.17;100.00
12799;BME280;19250;42.646;26.980;2023-03-04T00:07:50;99112.91;;;8.34;100.00
12799;BME280;19250;42.646;26.980;2023-03-04T00:10:18;99113.22;;;7.33;100.00
12799;BME280;19250;42.646;26.980;2023-03-04T00:12:45;99095.72;;;6.81;100.00
12799;BME280;19250;42.646;26.980;2023-03-04T00:15:12;99091.28;;;6.82;100.00
12799;BME280;19250;42.646;26.980;2023-03-04T00:17:39;99020.00;;;6.48;100.00
12799;BME280;19250;42.646;26.980;2023-03-04T00:20:08;99088.91;;;6.58;100.00
12799;BME280;19250;42.646;26.980;2023-03-04T00:22:37;99089.16;;;6.55;100.00
12799;BME280;19250;42.646;26.980;2023-03-04T00:25:05;99084.19;;;6.62;100.00
12799;BME280;19250;42.646;26.980;2023-03-04T00:27:32;99082.03;;;6.76;100.00
12799;BME280;19250;42.646;26.980;2023-03-04T00:29:59;99078.97;;;7.11;100.00
12799;BME280;19250;42.646;26.980;2023-03-04T00:32:26;99083.09;;;7.44;100.00
12799;BME280;19250;42.646;26.980;2023-03-04T00:34:54;99082.88;;;7.85;100.00
12799;BME280;19250;42.646;26.980;2023-03-04T00:37:21;99082.00;;;8.33;100.00
12799;BME280;19250;42.646;26.980;2023-03-04T00:39:49;99071.31;;;8.61;100.00
12799;BME280;19250;42.646;26.980;2023-03-04T00:42:17;99075.31;;;8.75;100.00
12799;BME280;19250;42.646;26.980;2023-03-04T00:44:44;99081.03;;;8.90;100.00
12799;BME280;19250;42.646;26.980;2023-03-04T00:47:11;99062.72;;;9.14;100.00
12799;BME280;19250;42.646;26.980;2023-03-04T00:49:38;99075.59;;;9.36;100.00
12799;BME280;19250;42.646;26.980;2023-03-04T00:52:06;99062.09;;;9.65;100.00
12799;BME280;19250;42.646;26.980;2023-03-04T00:54:33;99061.88;;;9.58;100.00
12799;BME280;19250;42.646;26.980;2023-03-04T00:57:02;99059.81;;;9.52;100.00
12799;BME280;19250;42.646;26.980;2023-03-04T00:59:29;99051.50;;;9.38;100.00
12799;BME280;19250;42.646;26.980;2023-03-04T01:01:56;99052.44;;;9.46;100.00
12799;BME280;19250;42.646;26.980;2023-03-04T01:04:23;99051.81;;;9.52;100.00
12799;BME280;19250;42.646;26.980;2023-03-04T01:06:50;99049.41;;;8.87;100.00
12799;BME280;19250;42.646;26.980;2023-03-04T01:09:18;99051.91;;;8.51;100.00
12799;BME280;19250;42.646;26.980;2023-03-04T01:11:45;99050.97;;;8.33;100.00
12799;BME280;19250;42.646;26.980;2023-03-04T01:14:13;99006.69;;;8.05;100.00
12799;BME280;19250;42.646;26.980;2023-03-04T01:16:41;99046.38;;;8.16;100.00
12799;BME280;19250;42.646;26.980;2023-03-04T01:19:08;99045.78;;;8.41;100.00
12799;BME280;19250;42.646;26.980;2023-03-04T01:21:35;99040.44;;;8.88;100.00
12799;BME280;19250;42.646;26.980;2023-03-04T01:24:03;99045.38;;;8.36;100.00
12799;BME280;19250;42.646;26.980;2023-03-04T01:26:30;99041.97;;;8.53;100.00
12799;BME280;19250;42.646;26.980;2023-03-04T01:28:57;99048.19;;;8.71;100.00
12799;BME280;19250;42.646;26.980;2023-03-04T01:31:26;99047.66;;;7.54;100.00
12799;BME280;19250;42.646;26.980;2023-03-04T01:33:53;99054.34;;;7.49;100.00
12799;BME280;19250;42.646;26.980;2023-03-04T01:36:20;99044.97;;;7.45;100.00
12799;BME280;19250;42.646;26.980;2023-03-04T01:38:47;99044.97;;;7.93;100.00
12799;BME280;19250;42.646;26.980;2023-03-04T01:41:16;99042.25;;;8.50;100.00
12799;BME280;19250;42.646;26.980;2023-03-04T01:43:45;99048.34;;;8.70;100.00
12799;BME280;19250;42.646;26.980;2023-03-04T01:46:12;99049.34;;;8.59;100.00
12799;BME280;19250;42.646;26.980;2023-03-04T01:48:43;99020.50;;;8.37;100.00
12799;BME280;19250;42.646;26.980;2023-03-04T01:51:12;99039.53;;;8.69;100.00
12799;BME280;19250;42.646;26.980;2023-03-04T01:53:40;99009.88;;;8.74;100.00
12799;BME280;19250;42.646;26.980;2023-03-04T01:56:13;99051.66;;;8.82;100.00
12799;BME280;19250;42.646;26.980;2023-03-04T01:58:42;99053.94;;;7.92;100.00
12799;BME280;19250;42.646;26.980;2023-03-04T02:01:10;99059.34;;;8.38;100.00
12799;BME280;19250;42.646;26.980;2023-03-04T02:03:38;99064.72;;;8.65;100.00
12799;BME280;19250;42.646;26.980;2023-03-04T02:06:07;99068.38;;;8.64;100.00
12799;BME280;19250;42.646;26.980;2023-03-04T02:08:34;99070.72;;;7.14;100.00
12799;BME280;19250;42.646;26.980;2023-03-04T02:11:01;99065.25;;;6.66;100.00
12799;BME280;19250;42.646;26.980;2023-03-04T02:13:28;99065.06;;;6.58;100.00
12799;BME280;19250;42.646;26.980;2023-03-04T02:15:55;99061.03;;;6.64;100.00
12799;BME280;19250;42.646;26.980;2023-03-04T02:18:23;99057.25;;;6.87;100.00
12799;BME280;19250;42.646;26.980;2023-03-04T02:20:57;99061.81;;;6.75;100.00
12799;BME280;19250;42.646;26.980;2023-03-04T02:23:33;99067.59;;;6.90;100.00
12799;BME280;19250;42.646;26.980;2023-03-04T02:26:22;99064.25;;;6.88;100.00
12799;BME280;19250;42.646;26.980;2023-03-04T02:28:51;99076.78;;;7.35;100.00
12799;BME280;19250;42.646;26.980;2023-03-04T02:31:23;99063.56;;;7.64;100.00
12799;BME280;19250;42.646;26.980;2023-03-04T02:33:52;99065.81;;;7.88;100.00
12799;BME280;19250;42.646;26.980;2023-03-04T02:36:20;99066.31;;;7.43;100.00
12799;BME280;19250;42.646;26.980;2023-03-04T02:38:49;99062.81;;;7.24;100.00
12799;BME280;19250;42.646;26.980;2023-03-04T02:41:19;99057.22;;;6.77;100.00
12799;BME280;19250;42.646;26.980;2023-03-04T02:43:51;99053.88;;;6.54;100.00
12799;BME280;19250;42.646;26.980;2023-03-04T02:46:18;99059.38;;;6.63;100.00
12799;BME280;19250;42.646;26.980;2023-03-04T02:48:46;99058.00;;;6.68;100.00
12799;BME280;19250;42.646;26.980;2023-03-04T02:51:13;99058.75;;;6.49;100.00
12799;BME280;19250;42.646;26.980;2023-03-04T02:53:40;99055.25;;;6.79;100.00
12799;BME280;19250;42.646;26.980;2023-03-04T02:56:08;99054.94;;;7.03;100.00
12799;BME280;19250;42.646;26.980;2023-03-04T02:58:35;99066.84;;;7.18;100.00
12799;BME280;19250;42.646;26.980;2023-03-04T03:01:04;99037.13;;;6.75;100.00
12799;BME280;19250;42.646;26.980;2023-03-04T03:03:32;99062.81;;;6.84;100.00
12799;BME280;19250;42.646;26.980;2023-03-04T03:05:59;99071.97;;;6.70;100.00
12799;BME280;19250;42.646;26.980;2023-03-04T03:08:26;99063.16;;;6.60;100.00
12799;BME280;19250;42.646;26.980;2023-03-04T03:10:53;99054.63;;;6.56;100.00
12799;BME280;19250;42.646;26.980;2023-03-04T03:13:21;99075.31;;;6.42;100.00
12799;BME280;19250;42.646;26.980;2023-03-04T03:15:49;99072.94;;;6.69;100.00
12799;BME280;19250;42.646;26.980;2023-03-04T03:18:18;99075.06;;;7.15;100.00
12799;BME280;19250;42.646;26.980;2023-03-04T03:20:45;98983.56;;;6.71;100.00
12799;BME280;19250;42.646;26.980;2023-03-04T03:23:13;99076.63;;;7.27;100.00
12799;BME280;19250;42.646;26.980;2023-03-04T03:25:42;99068.72;;;7.56;100.00
12799;BME280;19250;42.646;26.980;2023-03-04T03:28:10;99062.59;;;7.65;100.00
12799;BME280;19250;42.646;26.980;2023-03-04T03:30:37;99058.41;;;8.01;100.00
12799;BME280;19250;42.646;26.980;2023-03-04T03:33:04;99067.19;;;8.30;100.00
12799;BME280;19250;42.646;26.980;2023-03-04T03:35:33;99061.84;;;8.49;100.00
12799;BME280;19250;42.646;26.980;2023-03-04T03:38:00;99074.94;;;8.60;100.00
12799;BME280;19250;42.646;26.980;2023-03-04T03:40:27;99060.88;;;8.87;100.00
12799;BME280;19250;42.646;26.980;2023-03-04T03:42:54;99070.69;;;8.87;100.00
12799;BME280;19250;42.646;26.980;2023-03-04T03:45:22;99076.19;;;9.03;100.00
12799;BME280;19250;42.646;26.980;2023-03-04T03:47:49;99068.16;;;8.39;100.00
12799;BME280;19250;42.646;26.980;2023-03-04T03:50:16;99065.75;;;7.21;100.00
12799;BME280;19250;42.646;26.980;2023-03-04T03:52:45;99060.13;;;7.14;100.00
12799;BME280;19250;42.646;26.980;2023-03-04T03:55:12;99049.19;;;7.76;100.00
12799;BME280;19250;42.646;26.980;2023-03-04T03:57:40;99058.25;;;8.12;100.00
12799;BME280;19250;42.646;26.980;2023-03-04T04:00:08;99062.41;;;8.24;100.00
12799;BME280;19250;42.646;26.980;2023-03-04T04:02:36;99061.19;;;8.28;100.00
12799;BME280;19250;42.646;26.980;2023-03-04T04:05:03;99070.22;;;8.26;100.00
12799;BME280;19250;42.646;26.980;2023-03-04T04:07:31;99072.78;;;8.37;100.00
12799;BME280;19250;42.646;26.980;2023-03-04T04:10:00;99086.47;;;7.75;100.00
12799;BME280;19250;42.646;26.980;2023-03-04T04:12:27;99085.34;;;7.48;100.00
12799;BME280;19250;42.646;26.980;2023-03-04T04:14:54;99086.44;;;7.55;100.00
12799;BME280;19250;42.646;26.980;2023-03-04T04:17:21;99081.47;;;7.91;100.00
12799;BME280;19250;42.646;26.980;2023-03-04T04:19:49;99084.63;;;8.23;100.00
12799;BME280;19250;42.646;26.980;2023-03-04T04:22:18;99088.28;;;8.22;100.00
12799;BME280;19250;42.646;26.980;2023-03-04T04:24:46;99092.78;;;8.21;100.00
12799;BME280;19250;42.646;26.980;2023-03-04T04:27:15;99091.94;;;8.21;100.00
12799;BME280;19250;42.646;26.980;2023-03-04T04:29:42;99096.94;;;8.53;100.00
12799;BME280;19250;42.646;26.980;2023-03-04T04:32:09;99096.78;;;8.54;100.00
12799;BME280;19250;42.646;26.980;2023-03-04T04:34:38;99103.81;;;8.36;100.00
12799;BME280;19250;42.646;26.980;2023-03-04T04:37:05;99103.53;;;8.39;100.00
12799;BME280;19250;42.646;26.980;2023-03-04T04:39:32;99105.22;;;8.50;100.00
12799;BME280;19250;42.646;26.980;2023-03-04T04:41:59;99099.03;;;8.59;100.00
12799;BME280;19250;42.646;26.980;2023-03-04T04:44:28;99100.97;;;8.66;100.00
12799;BME280;19250;42.646;26.980;2023-03-04T04:46:55;99100.19;;;8.47;100.00
12799;BME280;19250;42.646;26.980;2023-03-04T04:49:22;99106.25;;;8.76;100.00
12799;BME280;19250;42.646;26.980;2023-03-04T04:51:50;99107.72;;;8.51;100.00
12799;BME280;19250;42.646;26.980;2023-03-04T04:54:19;99108.50;;;8.71;100.00
12799;BME280;19250;42.646;26.980;2023-03-04T04:56:47;99101.44;;;8.33;100.00
12799;BME280;19250;42.646;26.980;2023-03-04T04:59:15;99098.94;;;8.03;100.00
12799;BME280;19250;42.646;26.980;2023-03-04T05:01:43;99097.47;;;7.51;100.00
12799;BME280;19250;42.646;26.980;2023-03-04T05:04:11;99093.91;;;8.09;100.00
12799;BME280;19250;42.646;26.980;2023-03-04T05:06:38;99087.16;;;8.25;100.00
12799;BME280;19250;42.646;26.980;2023-03-04T05:09:06;99094.28;;;8.24;100.00
12799;BME280;19250;42.646;26.980;2023-03-04T05:11:33;99089.84;;;7.96;100.00
12799;BME280;19250;42.646;26.980;2023-03-04T05:14:01;99089.97;;;8.13;100.00
12799;BME280;19250;42.646;26.980;2023-03-04T05:16:28;99095.13;;;7.96;100.00
12799;BME280;19250;42.646;26.980;2023-03-04T05:18:56;99090.41;;;8.18;100.00
12799;BME280;19250;42.646;26.980;2023-03-04T05:21:24;99104.22;;;8.41;100.00
12799;BME280;19250;42.646;26.980;2023-03-04T05:23:51;99101.72;;;8.01;100.00
12799;BME280;19250;42.646;26.980;2023-03-04T05:26:18;99107.44;;;7.97;100.00
12799;BME280;19250;42.646;26.980;2023-03-04T05:28:46;99115.00;;;7.92;100.00
12799;BME280;19250;42.646;26.980;2023-03-04T05:31:13;99121.69;;;7.86;100.00
12799;BME280;19250;42.646;26.980;2023-03-04T05:33:41;99112.03;;;7.66;100.00
12799;BME280;19250;42.646;26.980;2023-03-04T05:36:09;99112.59;;;7.70;100.00
12799;BME280;19250;42.646;26.980;2023-03-04T05:38:37;99104.38;;;7.92;100.00
12799;BME280;19250;42.646;26.980;2023-03-04T05:41:05;99109.13;;;7.98;100.00
12799;BME280;19250;42.646;26.980;2023-03-04T05:43:33;99106.63;;;8.06;100.00
12799;BME280;19250;42.646;26.980;2023-03-04T05:46:01;99115.41;;;7.97;100.00
12799;BME280;19250;42.646;26.980;2023-03-04T05:48:29;99108.00;;;8.48;100.00
12799;BME280;19250;42.646;26.980;2023-03-04T05:50:58;99114.16;;;8.30;100.00
12799;BME280;19250;42.646;26.980;2023-03-04T05:53:27;99108.03;;;8.10;100.00
12799;BME280;19250;42.646;26.980;2023-03-04T05:55:55;99106.63;;;8.35;100.00
12799;BME280;19250;42.646;26.980;2023-03-04T05:58:23;99039.69;;;7.45;100.00
12799;BME280;19250;42.646;26.980;2023-03-04T06:00:51;99102.84;;;8.47;100.00
12799;BME280;19250;42.646;26.980;2023-03-04T06:03:20;99115.78;;;8.69;100.00
12799;BME280;19250;42.646;26.980;2023-03-04T06:05:47;99112.03;;;8.14;100.00
12799;BME280;19250;42.646;26.980;2023-03-04T06:08:14;99117.06;;;8.17;100.00
12799;BME280;19250;42.646;26.980;2023-03-04T06:10:43;99117.25;;;7.37;100.00
12799;BME280;19250;42.646;26.980;2023-03-04T06:13:11;99112.19;;;7.84;100.00
12799;BME280;19250;42.646;26.980;2023-03-04T06:15:38;99100.06;;;8.10;100.00
12799;BME280;19250;42.646;26.980;2023-03-04T06:18:06;99114.53;;;7.58;100.00
12799;BME280;19250;42.646;26.980;2023-03-04T06:20:34;99107.81;;;7.44;100.00
12799;BME280;19250;42.646;26.980;2023-03-04T06:23:01;99106.28;;;7.02;100.00
12799;BME280;19250;42.646;26.980;2023-03-04T06:25:28;99100.03;;;7.12;100.00
12799;BME280;19250;42.646;26.980;2023-03-04T06:27:57;99104.06;;;7.07;100.00
12799;BME280;19250;42.646;26.980;2023-03-04T06:30:24;99105.75;;;7.57;100.00
12799;BME280;19250;42.646;26.980;2023-03-04T06:32:52;99106.31;;;7.61;100.00
12799;BME280;19250;42.646;26.980;2023-03-04T06:35:19;99106.88;;;7.93;100.00
12799;BME280;19250;42.646;26.980;2023-03-04T06:37:47;99104.38;;;7.92;100.00
12799;BME280;19250;42.646;26.980;2023-03-04T06:40:14;99113.81;;;7.56;100.00
12799;BME280;19250;42.646;26.980;2023-03-04T06:42:42;99114.25;;;7.51;100.00
12799;BME280;19250;42.646;26.980;2023-03-04T06:45:11;99119.16;;;7.65;100.00
12799;BME280;19250;42.646;26.980;2023-03-04T06:47:38;99122.53;;;7.87;100.00
12799;BME280;19250;42.646;26.980;2023-03-04T06:50:06;99123.44;;;7.47;100.00
12799;BME280;19250;42.646;26.980;2023-03-04T06:52:34;99118.53;;;7.33;100.00
12799;BME280;19250;42.646;26.980;2023-03-04T06:55:01;99110.50;;;7.14;100.00
12799;BME280;19250;42.646;26.980;2023-03-04T06:57:28;99113.31;;;7.91;100.00
12799;BME280;19250;42.646;26.980;2023-03-04T06:59:56;99117.22;;;8.06;100.00
12799;BME280;19250;42.646;26.980;2023-03-04T07:02:24;99118.63;;;8.10;100.00
12799;BME280;19250;42.646;26.980;2023-03-04T07:04:51;99121.13;;;7.92;100.00
12799;BME280;19250;42.646;26.980;2023-03-04T07:07:19;99114.53;;;7.67;100.00
12799;BME280;19250;42.646;26.980;2023-03-04T07:09:46;99122.81;;;7.84;100.00
12799;BME280;19250;42.646;26.980;2023-03-04T07:12:13;99105.31;;;8.19;100.00
12799;BME280;19250;42.646;26.980;2023-03-04T07:14:40;99108.03;;;9.22;100.00
12799;BME280;19250;42.646;26.980;2023-03-04T07:17:08;99120.34;;;8.86;100.00
12799;BME280;19250;42.646;26.980;2023-03-04T07:19:36;99114.69;;;9.36;100.00
12799;BME280;19250;42.646;26.980;2023-03-04T07:22:04;99120.78;;;8.82;100.00
12799;BME280;19250;42.646;26.980;2023-03-04T07:24:31;99114.50;;;8.73;100.00
12799;BME280;19250;42.646;26.980;2023-03-04T07:26:58;99106.47;;;8.92;100.00
12799;BME280;19250;42.646;26.980;2023-03-04T07:29:25;99105.31;;;8.58;100.00
12799;BME280;19250;42.646;26.980;2023-03-04T07:31:53;99101.31;;;9.18;100.00
12799;BME280;19250;42.646;26.980;2023-03-04T07:34:20;99102.13;;;9.28;100.00
12799;BME280;19250;42.646;26.980;2023-03-04T07:36:49;99099.44;;;9.55;100.00
12799;BME280;19250;42.646;26.980;2023-03-04T07:39:16;99094.91;;;9.65;100.00
12799;BME280;19250;42.646;26.980;2023-03-04T07:41:43;99104.34;;;9.95;100.00
12799;BME280;19250;42.646;26.980;2023-03-04T07:44:11;99106.63;;;10.08;100.00
12799;BME280;19250;42.646;26.980;2023-03-04T07:46:39;99097.19;;;9.96;100.00
12799;BME280;19250;42.646;26.980;2023-03-04T07:49:07;99109.97;;;10.97;100.00
12799;BME280;19250;42.646;26.980;2023-03-04T07:51:34;99047.53;;;10.81;100.00
12799;BME280;19250;42.646;26.980;2023-03-04T07:54:03;99121.16;;;10.74;100.00
12799;BME280;19250;42.646;26.980;2023-03-04T07:56:32;99123.41;;;10.18;100.00
12799;BME280;19250;42.646;26.980;2023-03-04T07:59:00;99133.06;;;10.19;100.00
12799;BME280;19250;42.646;26.980;2023-03-04T08:01:29;99121.16;;;9.23;100.00
12799;BME280;19250;42.646;26.980;2023-03-04T08:03:57;99127.88;;;8.91;100.00
12799;BME280;19250;42.646;26.980;2023-03-04T08:06:25;99123.97;;;9.94;100.00
12799;BME280;19250;42.646;26.980;2023-03-04T08:08:56;99101.69;;;9.95;100.00
12799;BME280;19250;42.646;26.980;2023-03-04T08:11:26;99125.78;;;9.76;100.00
12799;BME280;19250;42.646;26.980;2023-03-04T08:13:54;99130.84;;;9.52;100.00
12799;BME280;19250;42.646;26.980;2023-03-04T08:16:22;99121.03;;;9.25;100.00
12799;BME280;19250;42.646;26.980;2023-03-04T08:18:52;99119.34;;;8.87;100.00
12799;BME280;19250;42.646;26.980;2023-03-04T08:21:20;99108.44;;;9.17;100.00
12799;BME280;19250;42.646;26.980;2023-03-04T08:23:48;99114.22;;;9.67;100.00
12799;BME280;19250;42.646;26.980;2023-03-04T08:26:18;99120.81;;;9.09;100.00
12799;BME280;19250;42.646;26.980;2023-03-04T08:28:47;99111.31;;;8.69;100.00
12799;BME280;19250;42.646;26.980;2023-03-04T08:31:16;99105.91;;;8.98;100.00
12799;BME280;19250;42.646;26.980;2023-03-04T08:33:44;99114.00;;;8.97;100.00
12799;BME280;19250;42.646;26.980;2023-03-04T08:36:13;99115.41;;;8.54;100.00
12799;BME280;19250;42.646;26.980;2023-03-04T08:38:40;99109.72;;;8.86;100.00
12799;BME280;19250;42.646;26.980;2023-03-04T08:41:07;99107.09;;;8.77;100.00
12799;BME280;19250;42.646;26.980;2023-03-04T08:43:35;99097.88;;;9.08;100.00
12799;BME280;19250;42.646;26.980;2023-03-04T08:46:04;99104.41;;;9.23;100.00
12799;BME280;19250;42.646;26.980;2023-03-04T08:48:32;99089.56;;;9.65;100.00
12799;BME280;19250;42.646;26.980;2023-03-04T08:50:59;99098.22;;;9.67;100.00
12799;BME280;19250;42.646;26.980;2023-03-04T08:53:26;99090.00;;;10.49;100.00
12799;BME280;19250;42.646;26.980;2023-03-04T08:55:54;99103.94;;;11.28;100.00
12799;BME280;19250;42.646;26.980;2023-03-04T08:58:21;99098.47;;;10.70;100.00
12799;BME280;19250;42.646;26.980;2023-03-04T09:00:48;99095.22;;;10.33;100.00
12799;BME280;19250;42.646;26.980;2023-03-04T09:03:18;99101.84;;;11.40;100.00
12799;BME280;19250;42.646;26.980;2023-03-04T09:05:46;99101.13;;;11.72;100.00
12799;BME280;19250;42.646;26.980;2023-03-04T09:08:14;99097.06;;;10.84;100.00
12799;BME280;19250;42.646;26.980;2023-03-04T09:10:41;99090.94;;;10.40;100.00
12799;BME280;19250;42.646;26.980;2023-03-04T09:13:09;99083.09;;;10.90;100.00
12799;BME280;19250;42.646;26.980;2023-03-04T09:15:37;99083.94;;;10.39;100.00
12799;BME280;19250;42.646;26.980;2023-03-04T09:18:09;99082.53;;;11.54;100.00
12799;BME280;19250;42.646;26.980;2023-03-04T09:20:38;99088.84;;;11.45;100.00
12799;BME280;19250;42.646;26.980;2023-03-04T09:23:05;99081.09;;;11.26;100.00
12799;BME280;19250;42.646;26.980;2023-03-04T09:25:34;99079.69;;;11.14;100.00
12799;BME280;19250;42.646;26.980;2023-03-04T09:28:01;99073.47;;;10.71;100.00
12799;BME280;19250;42.646;26.980;2023-03-04T09:30:28;99064.63;;;11.38;100.00
12799;BME280;19250;42.646;26.980;2023-03-04T09:32:55;99069.13;;;11.38;100.00
12799;BME280;19250;42.646;26.980;2023-03-04T09:35:23;99070.25;;;11.77;100.00
12799;BME280;19250;42.646;26.980;2023-03-04T09:37:52;99075.66;;;11.43;100.00
12799;BME280;19250;42.646;26.980;2023-03-04T09:40:21;99069.47;;;11.43;100.00
12799;BME280;19250;42.646;26.980;2023-03-04T09:42:51;99070.44;;;12.08;100.00
12799;BME280;19250;42.646;26.980;2023-03-04T09:45:21;99066.94;;;11.91;100.00
12799;BME280;19250;42.646;26.980;2023-03-04T09:47:51;99048.22;;;11.83;100.00
12799;BME280;19250;42.646;26.980;2023-03-04T09:50:19;99060.72;;;12.64;100.00
12799;BME280;19250;42.646;26.980;2023-03-04T09:53:03;99055.53;;;12.70;99.08
12799;BME280;19250;42.646;26.980;2023-03-04T09:55:34;99054.72;;;14.46;94.23
12799;BME280;19250;42.646;26.980;2023-03-04T09:58:11;99005.38;;;13.73;90.88
12799;BME280;19250;42.646;26.980;2023-03-04T10:00:44;99053.56;;;13.50;92.80
12799;BME280;19250;42.646;26.980;2023-03-04T10:03:16;99016.69;;;13.83;94.59
12799;BME280;19250;42.646;26.980;2023-03-04T10:05:50;99049.19;;;13.80;90.71
12799;BME280;19250;42.646;26.980;2023-03-04T10:08:29;99044.41;;;13.44;93.23
12799;BME280;19250;42.646;26.980;2023-03-04T10:11:00;99033.13;;;12.63;99.35
12799;BME280;19250;42.646;26.980;2023-03-04T10:13:33;99019.88;;;13.55;99.07
12799;BME280;19250;42.646;26.980;2023-03-04T10:16:04;99020.84;;;14.08;93.02
12799;BME280;19250;42.646;26.980;2023-03-04T10:18:37;98996.94;;;13.30;90.86
12799;BME280;19250;42.646;26.980;2023-03-04T10:21:15;99006.78;;;13.38;94.43
12799;BME280;19250;42.646;26.980;2023-03-04T10:23:48;99008.09;;;13.64;92.20
12799;BME280;19250;42.646;26.980;2023-03-04T10:26:17;99012.06;;;12.60;98.93
12799;BME280;19250;42.646;26.980;2023-03-04T10:28:46;98997.25;;;12.33;100.00
12799;BME280;19250;42.646;26.980;2023-03-04T10:31:19;98933.31;;;11.99;98.80
12799;BME280;19250;42.646;26.980;2023-03-04T10:33:48;98990.13;;;12.02;100.00
12799;BME280;19250;42.646;26.980;2023-03-04T10:36:26;98966.38;;;11.58;100.00
12799;BME280;19250;42.646;26.980;2023-03-04T10:39:03;98991.72;;;11.54;100.00
12799;BME280;19250;42.646;26.980;2023-03-04T10:41:31;98981.59;;;11.00;100.00
12799;BME280;19250;42.646;26.980;2023-03-04T10:44:11;98979.00;;;11.24;100.00
12799;BME280;19250;42.646;26.980;2023-03-04T10:46:41;98948.94;;;11.14;100.00
12799;BME280;19250;42.646;26.980;2023-03-04T10:49:11;98972.03;;;11.39;100.00
12799;BME280;19250;42.646;26.980;2023-03-04T10:51:44;98964.56;;;10.92;100.00
12799;BME280;19250;42.646;26.980;2023-03-04T10:54:23;98960.31;;;11.32;100.00
12799;BME280;19250;42.646;26.980;2023-03-04T10:57:00;98951.34;;;11.65;100.00
12799;BME280;19250;42.646;26.980;2023-03-04T10:59:46;98943.66;;;11.38;100.00
12799;BME280;19250;42.646;26.980;2023-03-04T11:02:27;98940.69;;;11.97;100.00
12799;BME280;19250;42.646;26.980;2023-03-04T11:05:01;98936.66;;;11.93;100.00
12799;BME280;19250;42.646;26.980;2023-03-04T11:07:31;98935.50;;;11.72;100.00
12799;BME280;19250;42.646;26.980;2023-03-04T11:10:16;98925.44;;;11.09;100.00
12799;BME280;19250;42.646;26.980;2023-03-04T11:12:48;98921.94;;;11.17;100.00
12799;BME280;19250;42.646;26.980;2023-03-04T11:15:19;98877.91;;;11.13;100.00
12799;BME280;19250;42.646;26.980;2023-03-04T11:17:51;98906.53;;;10.86;100.00
12799;BME280;19250;42.646;26.980;2023-03-04T11:20:27;98912.28;;;11.16;100.00
12799;BME280;19250;42.646;26.980;2023-03-04T11:23:00;98914.94;;;11.16;100.00
12799;BME280;19250;42.646;26.980;2023-03-04T11:25:34;98913.63;;;11.36;100.00
12799;BME280;19250;42.646;26.980;2023-03-04T11:28:04;98905.75;;;11.34;100.00
12799;BME280;19250;42.646;26.980;2023-03-04T11:30:38;98906.97;;;11.80;100.00
12799;BME280;19250;42.646;26.980;2023-03-04T11:33:21;98911.75;;;12.25;100.00
12799;BME280;19250;42.646;26.980;2023-03-04T11:36:02;98911.47;;;12.51;100.00
12799;BME280;19250;42.646;26.980;2023-03-04T11:38:38;98903.69;;;13.03;100.00
12799;BME280;19250;42.646;26.980;2023-03-04T11:41:12;98909.59;;;12.98;99.18
12799;BME280;19250;42.646;26.980;2023-03-04T11:43:42;98917.00;;;13.64;94.86
12799;BME280;19250;42.646;26.980;2023-03-04T11:46:31;98907.66;;;13.98;90.09
12799;BME280;19250;42.646;26.980;2023-03-04T11:49:15;98915.66;;;15.51;82.62
12799;BME280;19250;42.646;26.980;2023-03-04T11:51:52;98917.63;;;14.41;83.88
12799;BME280;19250;42.646;26.980;2023-03-04T11:54:30;98913.50;;;12.49;93.59
12799;BME280;19250;42.646;26.980;2023-03-04T11:57:05;98906.91;;;12.13;100.00
12799;BME280;19250;42.646;26.980;2023-03-04T11:59:44;98896.41;;;12.58;100.00
12799;BME280;19250;42.646;26.980;2023-03-04T12:02:17;98897.69;;;12.23;100.00
12799;BME280;19250;42.646;26.980;2023-03-04T12:05:15;98902.19;;;12.31;99.59
12799;BME280;19250;42.646;26.980;2023-03-04T12:10:38;98892.06;;;13.19;97.86
12799;BME280;19250;42.646;26.980;2023-03-04T12:16:20;98885.56;;;12.05;100.00
12799;BME280;19250;42.646;26.980;2023-03-04T12:19:03;98890.50;;;12.32;100.00
12799;BME280;19250;42.646;26.980;2023-03-04T12:21:53;98894.47;;;12.36;100.00
12799;BME280;19250;42.646;26.980;2023-03-04T12:24:45;98880.72;;;12.00;100.00
12799;BME280;19250;42.646;26.980;2023-03-04T12:27:21;98849.84;;;11.97;100.00
12799;BME280;19250;42.646;26.980;2023-03-04T12:29:57;98877.06;;;12.01;100.00
12799;BME280;19250;42.646;26.980;2023-03-04T12:32:35;98886.34;;;12.68;99.33
12799;BME280;19250;42.646;26.980;2023-03-04T12:35:30;98885.25;;;13.39;95.78
12799;BME280;19250;42.646;26.980;2023-03-04T12:38:28;98876.88;;;13.42;95.04
12799;BME280;19250;42.646;26.980;2023-03-04T12:41:06;98876.31;;;13.98;90.02
12799;BME280;19250;42.646;26.980;2023-03-04T12:43:44;98875.56;;;13.75;90.19
12799;BME280;19250;42.646;26.980;2023-03-04T12:46:36;98882.84;;;14.98;83.32
12799;BME280;19250;42.646;26.980;2023-03-04T12:49:28;98886.75;;;14.45;84.63
12799;BME280;19250;42.646;26.980;2023-03-04T12:52:04;98877.38;;;13.37;91.14
12799;BME280;19250;42.646;26.980;2023-03-04T12:54:38;98864.53;;;13.10;93.57
12799;BME280;19250;42.646;26.980;2023-03-04T12:57:11;98854.13;;;13.38;91.70
12799;BME280;19250;42.646;26.980;2023-03-04T12:59:43;98854.78;;;13.17;93.81
12799;BME280;19250;42.646;26.980;2023-03-04T13:02:40;98846.56;;;12.88;96.22
12799;BME280;19250;42.646;26.980;2023-03-04T13:05:22;98827.97;;;12.94;96.79
12799;BME280;19250;42.646;26.980;2023-03-04T13:07:58;98849.25;;;13.79;90.46